Terminal Aerodrome Forecast
Issued by NWS Melbourne, FL

Home | Current Version | Previous Version | Text Only | Print | Product List | Glossary On
Versions: 1 2 3 4 5 6 7 8 9 10 11 12 13
000
FTUS42 KMLB 011211 AAA
TAFVRB
TAF AMD
KVRB 011211Z 0112/0212 24005KT 1SM BR BKN002
      TEMPO 0113/0114 1/2SM FG VV002
     FM011400 29009KT P6SM SCT025 BKN250
     FM012000 08008KT P6SM SCT040 BKN250
     FM020200 24004KT P6SM SCT250=

USA.gov is the U.S. government's official web portal to all federal, state and local government web resources and services.